LOWG/GRZ METAR and TAF weather

Enter ICAO airport designator
Station Type Date Time Source
LOWG METAR 2021/09/24 05:20 UTC NOAA

LOWG 240520Z VRB02KT 9999 MIFG FEW040 06/06 Q1015 NOSIG


Station Type Date Time Source
LOWG Decoded METAR 2021/09/24 05:20 UTC NOAA

Graz-Thalerhof-Flughafen, Austria (LOWG) 47-00N 015-26E 347M
Sep 24, 2021 - 01:20 AM EDT / 2021.09.24 0520 UTC
Wind: Variable at 2 MPH (2 KT):0
Visibility: greater than 7 mile(s):0
Sky conditions: mostly clear
Weather: shallow fog
Temperature: 42 F (6 C)
Dew Point: 42 F (6 C)
Relative Humidity: 100%
Pressure (altimeter): 29.97 in. Hg (1015 hPa)
ob: LOWG 240520Z VRB02KT 9999 MIFG FEW040 06/06 Q1015 NOSIG
cycle: 5

Station Type Date Time Source
LOWG TAF 2021/09/24 06:21 UTC NOAA

TAF TAF LOWG 240515Z 2406/2506 VRB04KT CAVOK TX24/2414Z TN08/2406Z
TEMPO 2502/2506 0300 BCFG NSC

Example: see airport list